createdAt,value
2023-01-12T00:02:25.550Z,57.70
2023-01-12T00:04:53.694Z,87.10
2023-01-12T00:07:21.903Z,93.50
2023-01-12T00:09:50.087Z,81.80
2023-01-12T00:12:18.192Z,79.40
2023-01-12T00:14:46.267Z,93.80
2023-01-12T00:17:17.328Z,91.90
2023-01-12T00:19:45.505Z,93.00
2023-01-12T00:22:14.734Z,66.10
2023-01-12T00:24:45.494Z,70.40
2023-01-12T00:27:19.287Z,49.10
2023-01-12T00:29:47.875Z,51.80
2023-01-12T00:32:19.007Z,62.50
2023-01-12T00:34:47.473Z,65.00
2023-01-12T00:37:16.151Z,70.80
2023-01-12T00:40:00.919Z,65.60
2023-01-12T00:42:48.648Z,65.40
2023-01-12T00:45:22.959Z,65.80
2023-01-12T00:47:53.352Z,47.60
2023-01-12T00:50:21.756Z,48.10
2023-01-12T00:52:49.755Z,37.00
2023-01-12T00:55:18.118Z,33.20
2023-01-12T00:57:46.531Z,33.30
2023-01-12T01:00:15.582Z,36.60
2023-01-12T01:02:43.688Z,39.40
2023-01-12T01:05:12.043Z,46.30
2023-01-12T01:07:40.076Z,46.60
2023-01-12T01:10:08.803Z,46.80
2023-01-12T01:12:36.901Z,48.90
2023-01-12T01:15:05.221Z,44.80
2023-01-12T01:17:33.868Z,51.60
2023-01-12T01:20:01.957Z,57.90
2023-01-12T01:22:30.431Z,50.30
2023-01-12T01:24:58.645Z,51.60
2023-01-12T01:27:26.751Z,42.60
2023-01-12T01:29:54.833Z,38.40
2023-01-12T01:32:23.037Z,45.00
2023-01-12T01:34:51.266Z,43.30
2023-01-12T01:37:21.803Z,49.30
2023-01-12T01:39:50.064Z,47.00
2023-01-12T01:42:28.452Z,30.20
2023-01-12T01:44:59.602Z,32.80
2023-01-12T01:47:36.563Z,42.00
2023-01-12T01:50:12.331Z,60.90
2023-01-12T01:52:44.344Z,57.70
2023-01-12T01:55:34.133Z,56.70
2023-01-12T01:58:07.909Z,31.60
2023-01-12T02:00:40.544Z,19.40
2023-01-12T02:03:09.748Z,27.20
2023-01-12T02:05:42.380Z,27.40
2023-01-12T02:08:26.471Z,17.30
2023-01-12T02:10:57.608Z,19.70
2023-01-12T02:13:47.979Z,14.30
2023-01-12T02:16:30.430Z,21.20
2023-01-12T02:19:22.199Z,28.90
2023-01-12T02:21:50.180Z,25.10
2023-01-12T02:24:52.337Z,41.90
2023-01-12T02:27:26.033Z,41.20
2023-01-12T02:30:14.158Z,34.20
2023-01-12T02:33:00.068Z,22.90
2023-01-12T02:35:39.716Z,24.70
2023-01-12T02:38:36.450Z,13.30
2023-01-12T02:41:16.156Z,12.00
2023-01-12T02:43:44.944Z,8.50
2023-01-12T02:46:20.493Z,9.60
2023-01-12T02:48:55.486Z,9.30
2023-01-12T02:51:49.541Z,8.40
2023-01-12T02:54:20.469Z,11.30
2023-01-12T02:56:55.041Z,9.20
2023-01-12T02:59:26.207Z,9.10
2023-01-12T03:01:59.684Z,8.80
2023-01-12T03:04:29.450Z,11.30
2023-01-12T03:06:57.470Z,9.70
2023-01-12T03:09:36.983Z,8.90
2023-01-12T03:12:10.390Z,10.60
2023-01-12T03:17:15.671Z,10.20
2023-01-12T03:19:45.709Z,10.10
2023-01-12T03:22:16.479Z,8.70
2023-01-12T03:24:48.662Z,57.30
2023-01-12T03:27:30.173Z,23.00
2023-01-12T03:30:02.496Z,15.60
2023-01-12T03:32:30.940Z,19.70
2023-01-12T03:34:59.718Z,19.80
2023-01-12T03:37:48.109Z,15.80
2023-01-12T03:40:23.660Z,26.60
2023-01-12T03:43:06.823Z,24.10
2023-01-12T03:46:11.531Z,19.60
2023-01-12T03:48:57.245Z,56.00
2023-01-12T03:51:29.791Z,40.20
2023-01-12T03:53:58.810Z,35.00
2023-01-12T03:56:30.556Z,29.80
2023-01-12T03:58:58.783Z,25.20
2023-01-12T04:01:27.194Z,14.70
2023-01-12T04:03:55.635Z,16.20
2023-01-12T04:06:23.804Z,19.50
2023-01-12T04:08:51.946Z,19.00
2023-01-12T04:11:38.202Z,25.40
2023-01-12T04:14:06.209Z,21.70
2023-01-12T04:16:34.394Z,19.40
2023-01-12T04:19:02.496Z,21.10
2023-01-12T04:21:48.941Z,21.20
2023-01-12T04:24:17.006Z,20.50
2023-01-12T04:26:46.350Z,24.10
2023-01-12T04:29:14.771Z,20.50
2023-01-12T04:31:42.877Z,19.90
2023-01-12T04:34:10.920Z,21.40
2023-01-12T04:36:41.196Z,22.50
2023-01-12T04:39:10.150Z,19.80
2023-01-12T04:41:38.180Z,19.70
2023-01-12T04:44:06.429Z,16.00
2023-01-12T04:46:34.383Z,22.10
2023-01-12T04:49:02.651Z,19.40
2023-01-12T04:51:30.782Z,22.00
2023-01-12T04:53:58.882Z,22.80
2023-01-12T04:56:26.926Z,30.80
2023-01-12T04:58:59.580Z,21.60
2023-01-12T05:01:29.799Z,18.40
2023-01-12T05:04:02.768Z,21.00
2023-01-12T05:06:30.954Z,41.10
2023-01-12T05:09:19.849Z,62.80
2023-01-12T05:11:48.428Z,52.10
2023-01-12T05:14:16.456Z,43.20
2023-01-12T05:16:44.714Z,47.20
2023-01-12T05:19:13.109Z,46.40
2023-01-12T05:21:41.113Z,47.70
2023-01-12T05:24:09.283Z,48.00
2023-01-12T05:26:37.508Z,40.00
2023-01-12T05:29:05.589Z,40.50
2023-01-12T05:31:35.127Z,40.10
2023-01-12T05:34:04.138Z,33.50
2023-01-12T05:36:32.241Z,37.10
2023-01-12T05:39:00.305Z,33.60
2023-01-12T05:41:28.630Z,28.90
2023-01-12T05:43:56.737Z,15.50
2023-01-12T05:46:30.547Z,15.60
2023-01-12T05:48:59.077Z,15.70
2023-01-12T05:51:30.830Z,16.60
2023-01-12T05:53:59.009Z,15.10
2023-01-12T05:56:28.311Z,16.80
2023-01-12T05:58:58.852Z,14.70
2023-01-12T06:01:29.271Z,12.60
2023-01-12T06:03:59.789Z,15.80
2023-01-12T06:06:31.270Z,17.20
2023-01-12T06:09:00.792Z,15.90
2023-01-12T06:11:47.485Z,10.40
2023-01-12T06:14:16.625Z,15.30
2023-01-12T06:16:44.762Z,30.30
2023-01-12T06:19:13.330Z,71.70
2023-01-12T06:21:41.708Z,50.00
2023-01-12T06:24:09.877Z,48.50
2023-01-12T06:26:37.915Z,54.60
2023-01-12T06:29:07.258Z,52.50
2023-01-12T06:31:36.620Z,43.90
2023-01-12T06:34:04.880Z,24.10
2023-01-12T06:36:32.865Z,22.20
2023-01-12T06:39:01.150Z,19.00
2023-01-12T06:41:47.912Z,42.10
2023-01-12T06:44:15.874Z,52.80
2023-01-12T06:46:44.036Z,92.40
2023-01-12T06:49:12.165Z,109.80
2023-01-12T06:51:40.155Z,104.50
2023-01-12T06:54:08.342Z,102.60
2023-01-12T06:56:36.424Z,104.90
2023-01-12T06:59:04.426Z,100.60
2023-01-12T07:01:32.616Z,100.40
2023-01-12T07:04:00.800Z,93.00
2023-01-12T07:06:28.907Z,97.10
2023-01-12T07:08:57.176Z,94.50
2023-01-12T07:11:25.264Z,94.30
2023-01-12T07:13:53.279Z,97.20
2023-01-12T07:16:21.323Z,52.60
2023-01-12T07:18:49.724Z,23.40
2023-01-12T07:21:19.743Z,22.50
2023-01-12T07:23:47.884Z,22.40
2023-01-12T07:26:16.121Z,22.30
2023-01-12T07:28:44.174Z,22.00
2023-01-12T07:31:12.490Z,23.00
2023-01-12T07:33:40.754Z,28.60
2023-01-12T07:36:09.221Z,24.90
2023-01-12T07:38:38.274Z,20.40
2023-01-12T07:41:26.323Z,19.50
2023-01-12T07:43:58.395Z,20.80
2023-01-12T07:46:26.682Z,17.50
2023-01-12T07:48:54.856Z,21.00
2023-01-12T07:51:22.845Z,82.00
2023-01-12T07:53:51.555Z,33.40
2023-01-12T07:56:19.722Z,28.50
2023-01-12T07:58:48.864Z,18.40
2023-01-12T08:01:17.313Z,21.20
2023-01-12T08:03:45.486Z,15.10
2023-01-12T08:06:13.706Z,20.20
2023-01-12T08:08:41.845Z,16.30
2023-01-12T08:11:11.236Z,19.00
2023-01-12T08:13:40.691Z,15.90
2023-01-12T08:16:17.295Z,13.20
2023-01-12T08:18:52.847Z,14.10
2023-01-12T08:21:26.308Z,15.90
2023-01-12T08:26:37.547Z,14.30
2023-01-12T08:29:10.981Z,18.40
2023-01-12T08:31:41.356Z,17.70
2023-01-12T08:34:10.559Z,18.10
2023-01-12T08:36:44.060Z,18.30
2023-01-12T08:39:12.857Z,20.20
2023-01-12T08:41:42.410Z,18.40
2023-01-12T08:44:13.298Z,17.80
2023-01-12T08:46:52.552Z,18.00
2023-01-12T08:49:26.230Z,16.90
2023-01-12T08:51:54.350Z,18.50
2023-01-12T08:54:24.280Z,16.70
2023-01-12T08:56:54.039Z,15.80
2023-01-12T08:59:22.405Z,14.80
2023-01-12T09:01:50.575Z,16.10
2023-01-12T09:04:18.706Z,15.20
2023-01-12T09:06:48.461Z,14.40
2023-01-12T09:09:19.332Z,16.40
2023-01-12T09:11:48.988Z,14.20
2023-01-12T09:14:17.796Z,16.40
2023-01-12T09:16:45.889Z,13.50
2023-01-12T09:19:15.612Z,14.60
2023-01-12T09:21:44.396Z,14.00
2023-01-12T09:24:14.763Z,15.90
2023-01-12T09:26:45.522Z,14.90
2023-01-12T09:29:14.728Z,16.40
2023-01-12T09:31:44.332Z,16.50
2023-01-12T09:34:12.704Z,16.60
2023-01-12T09:36:41.537Z,17.10
2023-01-12T09:39:26.169Z,18.20
2023-01-12T09:42:15.184Z,19.20
2023-01-12T09:45:06.483Z,21.50
2023-01-12T09:47:56.412Z,20.30
2023-01-12T09:50:33.864Z,21.00
2023-01-12T09:53:05.186Z,18.50
2023-01-12T09:55:57.776Z,20.40
2023-01-12T09:58:53.657Z,21.00
2023-01-12T10:01:29.101Z,20.40
2023-01-12T10:04:01.709Z,22.50
2023-01-12T10:06:30.041Z,19.80
2023-01-12T10:09:04.883Z,21.40
2023-01-12T10:12:03.590Z,22.30
2023-01-12T10:14:57.888Z,24.70
2023-01-12T10:17:59.137Z,22.60
2023-01-12T10:20:34.842Z,21.40
2023-01-12T10:23:09.175Z,23.30
2023-01-12T10:25:48.538Z,22.90
2023-01-12T10:28:36.301Z,19.50
2023-01-12T10:31:05.006Z,22.90
2023-01-12T10:33:34.690Z,18.80
2023-01-12T10:36:04.598Z,19.10
2023-01-12T10:38:39.320Z,18.90
2023-01-12T10:41:10.030Z,17.70
2023-01-12T10:43:39.783Z,19.60
2023-01-12T10:46:12.870Z,21.10
2023-01-12T10:51:25.191Z,21.80
2023-01-12T10:54:03.264Z,16.50
2023-01-12T10:56:35.751Z,17.00
2023-01-12T10:59:12.819Z,24.90
2023-01-12T11:01:49.747Z,26.10
2023-01-12T11:04:23.922Z,16.40
2023-01-12T11:07:01.527Z,17.10
2023-01-12T11:09:32.005Z,16.60
2023-01-12T11:12:40.128Z,18.20
2023-01-12T11:15:11.429Z,21.90
2023-01-12T11:17:56.604Z,17.00
2023-01-12T11:20:28.050Z,22.50
2023-01-12T11:23:00.648Z,20.00
2023-01-12T11:25:36.125Z,19.70
2023-01-12T11:28:14.504Z,19.30
2023-01-12T11:30:51.784Z,22.30
2023-01-12T11:33:27.167Z,16.70
2023-01-12T11:36:03.288Z,18.80
2023-01-12T11:38:50.810Z,16.80
2023-01-12T11:41:26.999Z,17.40
2023-01-12T11:44:11.875Z,18.30
2023-01-12T11:46:47.824Z,18.70
2023-01-12T11:49:27.910Z,20.40
2023-01-12T11:51:58.603Z,22.40
2023-01-12T11:54:28.713Z,21.60
2023-01-12T11:57:19.371Z,23.30
2023-01-12T11:59:53.409Z,19.00
2023-01-12T12:02:37.517Z,17.30
2023-01-12T12:05:12.447Z,16.40
2023-01-12T12:07:57.280Z,14.40
2023-01-12T12:10:53.895Z,17.00
2023-01-12T12:14:03.620Z,15.50
2023-01-12T12:16:40.577Z,19.10
2023-01-12T12:19:30.262Z,18.70
2023-01-12T12:22:14.970Z,21.90
2023-01-12T12:25:20.507Z,23.40
2023-01-12T12:28:24.032Z,17.70
2023-01-12T12:30:58.066Z,12.50
2023-01-12T12:33:38.196Z,11.50
2023-01-12T12:36:27.444Z,11.80
2023-01-12T12:39:07.692Z,14.30
2023-01-12T12:42:04.910Z,14.10
2023-01-12T12:45:06.554Z,19.80
2023-01-12T12:47:42.139Z,13.20
2023-01-12T12:50:39.859Z,13.30
2023-01-12T12:53:15.078Z,10.00
2023-01-12T12:55:44.887Z,12.30
2023-01-12T12:58:42.155Z,14.50
2023-01-12T13:01:33.592Z,15.10
2023-01-12T13:04:10.756Z,15.20
2023-01-12T13:06:48.611Z,11.20
2023-01-12T13:09:16.630Z,11.90
2023-01-12T13:11:55.075Z,10.60
2023-01-12T13:14:31.634Z,13.10
2023-01-12T13:17:18.321Z,14.90
2023-01-12T13:20:08.364Z,13.40
2023-01-12T13:22:41.754Z,10.70
2023-01-12T13:25:09.957Z,14.30
2023-01-12T13:27:49.474Z,13.00
2023-01-12T13:30:22.311Z,16.20
2023-01-12T13:32:53.354Z,11.90
2023-01-12T13:35:26.770Z,14.20
2023-01-12T13:40:30.138Z,12.60
2023-01-12T13:43:19.823Z,13.30
2023-01-12T13:46:04.641Z,11.70
2023-01-12T13:48:35.823Z,14.70
2023-01-12T13:51:21.060Z,14.60
2023-01-12T13:54:06.830Z,12.90
2023-01-12T13:56:35.143Z,16.10
2023-01-12T13:59:06.348Z,14.70
2023-01-12T14:01:38.117Z,15.80
2023-01-12T14:04:18.079Z,21.90
2023-01-12T14:06:47.641Z,71.90
2023-01-12T14:09:37.403Z,23.30
2023-01-12T14:12:39.484Z,17.60
2023-01-12T14:15:37.297Z,19.40
2023-01-12T14:18:16.755Z,19.30
2023-01-12T14:20:46.337Z,17.90
2023-01-12T14:23:26.143Z,17.40
2023-01-12T14:26:03.726Z,21.40
2023-01-12T14:28:33.200Z,15.90
2023-01-12T14:31:02.331Z,18.30
2023-01-12T14:33:33.466Z,19.70
2023-01-12T14:36:17.722Z,18.40
2023-01-12T14:38:46.552Z,25.40
2023-01-12T14:41:39.231Z,37.00
2023-01-12T14:44:42.983Z,24.30
2023-01-12T14:47:22.983Z,20.00
2023-01-12T14:49:51.145Z,24.60
2023-01-12T14:52:29.927Z,29.40
2023-01-12T14:55:26.312Z,22.10
2023-01-12T14:57:58.306Z,27.40
2023-01-12T15:00:32.102Z,25.50
2023-01-12T15:03:04.983Z,21.10
2023-01-12T15:05:34.331Z,24.70
2023-01-12T15:08:19.808Z,23.80
2023-01-12T15:11:07.393Z,24.40
2023-01-12T15:13:37.409Z,17.90
2023-01-12T15:16:24.452Z,13.30
2023-01-12T15:19:11.366Z,17.60
2023-01-12T15:22:00.418Z,16.70
2023-01-12T15:24:54.297Z,16.10
2023-01-12T15:27:23.823Z,14.30
2023-01-12T15:29:52.234Z,18.20
2023-01-12T15:32:38.003Z,29.80
2023-01-12T15:35:21.436Z,20.10
2023-01-12T15:37:51.769Z,20.00
2023-01-12T15:40:20.789Z,14.90
2023-01-12T15:42:52.996Z,22.60
2023-01-12T15:45:42.211Z,22.50
2023-01-12T15:48:11.281Z,26.20
2023-01-12T15:50:42.320Z,22.90
2023-01-12T15:53:22.942Z,24.20
2023-01-12T15:55:51.410Z,27.50
2023-01-12T15:58:19.714Z,29.40
2023-01-12T16:00:48.546Z,31.30
2023-01-12T16:03:48.319Z,35.20
2023-01-12T16:06:06.229Z,27.90
2023-01-12T16:08:34.229Z,16.90
2023-01-12T16:11:09.154Z,12.90
2023-01-12T16:13:37.497Z,15.40
2023-01-12T16:16:06.491Z,15.30
2023-01-12T16:18:34.617Z,14.70
2023-01-12T16:21:02.737Z,13.90
2023-01-12T16:23:31.925Z,17.50
2023-01-12T16:26:01.571Z,19.90
2023-01-12T16:28:29.793Z,18.40
2023-01-12T16:30:58.450Z,16.80
2023-01-12T16:33:26.625Z,19.60
2023-01-12T16:35:55.400Z,23.40
2023-01-12T16:38:23.611Z,22.40
2023-01-12T16:40:51.745Z,23.90
2023-01-12T16:43:21.055Z,18.00
2023-01-12T16:45:49.355Z,22.60
2023-01-12T16:48:18.654Z,19.30
2023-01-12T16:50:46.839Z,21.40
2023-01-12T16:53:14.796Z,20.30
2023-01-12T16:55:43.043Z,17.90
2023-01-12T16:58:11.065Z,18.90
2023-01-12T17:00:39.135Z,19.20
2023-01-12T17:03:07.945Z,15.80
2023-01-12T17:05:41.406Z,17.00
2023-01-12T17:08:09.849Z,16.90
2023-01-12T17:10:38.154Z,16.30
2023-01-12T17:13:06.608Z,19.50
2023-01-12T17:15:35.005Z,22.80
2023-01-12T17:18:03.404Z,21.20
2023-01-12T17:20:31.746Z,24.70
2023-01-12T17:23:01.298Z,21.70
2023-01-12T17:25:29.765Z,20.70
2023-01-12T17:27:58.031Z,22.10
2023-01-12T17:30:27.012Z,22.50
2023-01-12T17:32:55.431Z,21.70
2023-01-12T17:35:23.497Z,20.90
2023-01-12T17:37:51.693Z,22.50
2023-01-12T17:40:19.887Z,23.40
2023-01-12T17:43:02.857Z,23.20
2023-01-12T17:45:31.525Z,20.40
2023-01-12T17:47:59.733Z,23.40
2023-01-12T17:50:27.965Z,20.60
2023-01-12T17:52:56.060Z,22.80
2023-01-12T17:55:24.110Z,25.40
2023-01-12T17:57:52.228Z,23.10
2023-01-12T18:00:20.687Z,23.30
2023-01-12T18:02:50.393Z,24.80
2023-01-12T18:05:18.659Z,24.30
2023-01-12T18:07:46.838Z,24.90
2023-01-12T18:10:15.023Z,26.70
2023-01-12T18:12:43.060Z,24.80
2023-01-12T18:15:11.568Z,25.70
2023-01-12T18:17:39.575Z,25.40
2023-01-12T18:20:08.249Z,29.20
2023-01-12T18:22:36.424Z,32.20
2023-01-12T18:25:05.855Z,35.30
2023-01-12T18:27:33.997Z,25.60
2023-01-12T18:30:02.104Z,22.60
2023-01-12T18:32:30.183Z,25.40
2023-01-12T18:34:58.606Z,29.40
2023-01-12T18:37:26.811Z,25.50
2023-01-12T18:39:54.867Z,39.90
2023-01-12T18:42:41.364Z,48.20
2023-01-12T18:45:10.179Z,50.10
2023-01-12T18:48:13.633Z,38.90
2023-01-12T18:51:00.184Z,39.40
2023-01-12T18:53:31.830Z,31.90
2023-01-12T18:56:04.521Z,28.80
2023-01-12T18:58:34.728Z,35.00
2023-01-12T19:01:07.322Z,33.90
2023-01-12T19:03:38.455Z,36.10
2023-01-12T19:06:14.084Z,38.50
2023-01-12T19:09:00.564Z,36.40
2023-01-12T19:11:28.786Z,32.50
2023-01-12T19:14:15.427Z,34.40
2023-01-12T19:17:01.815Z,39.90
2023-01-12T19:19:31.311Z,33.40
2023-01-12T19:22:17.897Z,37.90
2023-01-12T19:25:04.350Z,47.30
2023-01-12T19:27:51.064Z,44.80
2023-01-12T19:30:19.688Z,46.80
2023-01-12T19:32:47.761Z,33.10
2023-01-12T19:35:16.093Z,33.30
2023-01-12T19:37:48.625Z,32.40
2023-01-12T19:40:35.284Z,31.80
2023-01-12T19:43:14.522Z,39.40
2023-01-12T19:45:44.943Z,30.90
2023-01-12T19:48:15.760Z,28.70
2023-01-12T19:50:45.012Z,32.70
2023-01-12T19:53:16.089Z,37.50
2023-01-12T19:55:44.205Z,36.30
2023-01-12T19:58:12.558Z,36.20
2023-01-12T20:00:45.227Z,32.00
2023-01-12T20:03:19.595Z,30.40
2023-01-12T20:05:51.028Z,29.90
2023-01-12T20:08:22.085Z,33.50
2023-01-12T20:10:58.484Z,36.20
2023-01-12T20:13:27.306Z,38.70
2023-01-12T20:15:57.654Z,29.80
2023-01-12T20:18:25.852Z,30.90
2023-01-12T20:20:58.782Z,30.00
2023-01-12T20:23:27.497Z,29.80
2023-01-12T20:25:55.656Z,31.60
2023-01-12T20:28:23.767Z,31.90
2023-01-12T20:30:51.924Z,41.60
2023-01-12T20:33:20.377Z,44.00
2023-01-12T20:35:49.705Z,38.80
2023-01-12T20:38:18.811Z,39.30
2023-01-12T20:40:46.984Z,41.00
2023-01-12T20:43:15.110Z,56.10
2023-01-12T20:45:44.298Z,54.70
2023-01-12T20:48:14.152Z,32.80
2023-01-12T20:50:44.157Z,27.50
2023-01-12T20:53:13.640Z,27.10
2023-01-12T20:55:49.192Z,25.10
2023-01-12T20:58:18.140Z,41.00
2023-01-12T21:00:46.368Z,42.20
2023-01-12T21:03:14.816Z,35.70
2023-01-12T21:05:44.780Z,48.80
2023-01-12T21:08:14.202Z,46.60
2023-01-12T21:10:49.444Z,47.60
2023-01-12T21:13:18.221Z,44.30
2023-01-12T21:15:46.865Z,41.00
2023-01-12T21:18:15.096Z,36.20
2023-01-12T21:20:43.993Z,35.90
2023-01-12T21:23:12.042Z,47.50
2023-01-12T21:25:43.870Z,43.20
2023-01-12T21:28:12.441Z,40.40
2023-01-12T21:30:40.985Z,37.40
2023-01-12T21:33:10.754Z,39.60
2023-01-12T21:35:39.171Z,33.40
2023-01-12T21:38:07.704Z,24.20
2023-01-12T21:40:37.118Z,22.30
2023-01-12T21:43:12.429Z,25.60
2023-01-12T21:45:52.191Z,26.20
2023-01-12T21:48:22.604Z,25.30
2023-01-12T21:50:51.046Z,22.20
2023-01-12T21:53:22.287Z,19.60
2023-01-12T21:55:56.598Z,18.90
2023-01-12T21:58:25.784Z,21.50
2023-01-12T22:00:54.158Z,21.90
2023-01-12T22:03:26.952Z,21.80
2023-01-12T22:05:55.810Z,19.60
2023-01-12T22:08:23.951Z,23.40
2023-01-12T22:10:52.026Z,17.00
2023-01-12T22:13:20.110Z,15.10
2023-01-12T22:15:51.126Z,13.70
2023-01-12T22:18:21.015Z,14.80
2023-01-12T22:20:49.579Z,13.90
2023-01-12T22:23:17.669Z,13.20
2023-01-12T22:25:45.687Z,13.40
2023-01-12T22:28:13.961Z,11.40
2023-01-12T22:30:43.241Z,10.20
2023-01-12T22:33:14.151Z,12.00
2023-01-12T22:35:42.124Z,8.50
2023-01-12T22:38:10.291Z,8.50
2023-01-12T22:40:38.509Z,6.50
2023-01-12T22:43:25.164Z,7.50
2023-01-12T22:45:57.764Z,12.10
2023-01-12T22:48:27.103Z,11.20
2023-01-12T22:50:55.065Z,12.90
2023-01-12T22:53:24.229Z,14.90
2023-01-12T22:55:52.419Z,12.50
2023-01-12T22:58:20.414Z,14.30
2023-01-12T23:00:48.775Z,13.30
2023-01-12T23:03:16.857Z,14.20
2023-01-12T23:05:56.318Z,13.00
2023-01-12T23:08:25.203Z,20.20
2023-01-12T23:11:03.058Z,21.50
2023-01-12T23:13:31.533Z,15.50
2023-01-12T23:16:04.321Z,15.40
2023-01-12T23:18:34.333Z,20.60
2023-01-12T23:21:10.990Z,16.60
2023-01-12T23:23:39.069Z,19.90
2023-01-12T23:26:09.722Z,12.50
2023-01-12T23:28:41.715Z,10.40
2023-01-12T23:31:12.476Z,12.10
2023-01-12T23:33:43.321Z,19.00
2023-01-12T23:36:23.359Z,29.30
2023-01-12T23:38:57.655Z,25.90
2023-01-12T23:41:27.790Z,17.00
2023-01-12T23:43:58.813Z,12.80
2023-01-12T23:46:28.678Z,11.80
2023-01-12T23:48:57.843Z,13.30
2023-01-12T23:51:27.563Z,14.10
2023-01-12T23:53:59.367Z,10.90
2023-01-12T23:56:30.612Z,26.50
2023-01-12T23:58:59.109Z,28.50
